Beekmantown, New York
Current Conditions -  °F | °C
As of 3:53 AM on Monday 20 Oct 2014 (Local Time) from KPBG Reporting Station
Clear Clear  
Wind Chill: 30°   Ceiling: Unl
Heat Index: 30°   Visibility: 10mi
Dew Point: 27°   Wind: 3mph
Humidity: 88%   Direction: 260°W
Pressure: 29.99"   Gusts: NA
Location:  44.737°N, 73.4626°W
Report Text: KPBG 200753Z AUTO 26003KT 10SM CLR M01/M03 A2999 RMK AO2 SLP159 T10111028
Loading
Personal Weather Stations






























Interactive Weather Map
Tropical Storm Tracking
New forecast layout! Learn more

10-Day Weather Forecast

Advertisements
Track Severe Weather on mobile